Have a Safe July 4th! 

Flight Track Log - Related Links

Times and Time Zones

All times are in EDT time to prevent confusion due to time zone crossing. See the AAL970 flight status page for this flight to view local times or setup timezone preferences in your user account.

Time Position Orientation Groundspeed Altitude Reporting Facility
EDT Latitude Longitude Course Direction KTS MPH feet Rate Location/Type
Sat 12:18:46 PM 32.8833 -97.0333 357° North 166 191 1,400  Level Dallas / Fort Worth TRACON
Sat 12:19:28 PM 32.8500 -97.0167 157° South 184 212 2,900 1,875 Climbing Dallas / Fort Worth TRACON
Sat 12:20:22 PM 32.8000 -97.0000 164° South 212 244 4,400 2,087 Climbing Dallas / Fort Worth TRACON
Sat 12:21:00 PM 32.9849 -96.8000 North  Level FlightAware Approximate
Sat 12:21:23 PM 32.7500 -96.9500 140° Southeast 274 315 6,900  Level Dallas / Fort Worth TRACON
Sat 12:22:00 PM 33.1064 -96.8028 357° North  Level FlightAware Approximate
Sat 12:22:22 PM 32.7667 -96.8667 77° East 307 353 9,100  Level Dallas / Fort Worth TRACON
Sat 12:23:00 PM 33.2278 -96.8115 357° North  Level FlightAware Approximate
Sat 12:23:53 PM 32.8819 -96.8072 23° Northeast 340 391 11,800  Level Fort Worth Center
Sat 12:24:53 PM 32.9758 -96.8092 359° North 358 412 14,300 2,350 Climbing Fort Worth Center
Sat 12:25:53 PM 33.0950 -96.8133 358° North 383 441 16,500 2,033 Climbing Fort Worth Center
Sat 12:26:54 PM 33.1931 -96.7828 15° North 396 456 18,400 2,200 Climbing Fort Worth Center
Sat 12:27:53 PM 33.3075 -96.7175 25° Northeast 407 468 20,900 2,017 Climbing Fort Worth Center
Sat 12:28:53 PM 33.4136 -96.6569 25° Northeast 418 481 22,400 1,537 Climbing Fort Worth Center
Sat 12:29:54 PM 33.5236 -96.5911 27° Northeast 424 488 24,000 1,500 Climbing Fort Worth Center
Sat 12:30:53 PM 33.6339 -96.5228 27° Northeast 430 495 25,400 1,250 Climbing Fort Worth Center
Sat 12:31:54 PM 33.7481 -96.4542 27° Northeast 435 501 26,500 1,190 Climbing Fort Worth Center
Sat 12:32:54 PM 33.8644 -96.3853 26° Northeast 453 521 27,800 1,200 Climbing Fort Worth Center
Sat 12:33:54 PM 33.9808 -96.3114 28° Northeast 458 527 28,900 900 Climbing Fort Worth Center
Sat 12:34:54 PM 34.0803 -96.2550 25° Northeast 469 540 29,600 850 Climbing Fort Worth Center
Sat 12:35:54 PM 34.2069 -96.1756 27° Northeast 464 534 30,600 1,100 Climbing Fort Worth Center
Sat 12:36:54 PM 34.3314 -96.1033 26° Northeast 469 540 31,800 1,100 Climbing Fort Worth Center
Sat 12:37:54 PM 34.4603 -96.0636 14° North 469 540 32,800 600 Climbing Fort Worth Center
Sat 12:38:54 PM 34.5761 -95.9733 33° Northeast 469 540 33,000 100 Climbing Fort Worth Center
Sat 12:39:54 PM 34.6836 -95.8756 37° Northeast 476 548 33,000  Level Fort Worth Center
Sat 12:40:54 PM 34.7950 -95.7775 36° Northeast 486 559 33,000  Level Fort Worth Center
Sat 12:41:54 PM 34.9164 -95.6664 37° Northeast 491 565 33,000  Level Fort Worth Center
Sat 12:42:53 PM 35.0236 -95.5703 36° Northeast 491 565 33,000  Level Fort Worth Center
Sat 12:43:54 PM 35.1306 -95.4767 36° Northeast 491 565 33,000 -49 Level Fort Worth Center
Sat 12:44:56 PM 35.2389 -95.3675 39° Northeast 486 559 32,900 -48 Descending Memphis Center
Sat 12:45:58 PM 35.3453 -95.2703 37° Northeast 482 555 32,900 49 Level Memphis Center
Sat 12:46:59 PM 35.4528 -95.1714 37° Northeast 483 556 33,000 98 Climbing Memphis Center
Sat 12:48:01 PM 35.5617 -95.0681 38° Northeast 490 564 33,100 52 Climbing Memphis Center
Sat 12:48:54 PM 35.6694 -94.9650 38° Northeast 491 565 33,100 -53 Level Kansas City Center
Sat 12:49:55 PM 35.7769 -94.8636 37° Northeast 489 563 33,000 -49 Descending Kansas City Center
Sat 12:50:57 PM 35.8833 -94.7639 37° Northeast 487 560 33,000  Level Kansas City Center
Sat 12:51:58 PM 35.9894 -94.6622 38° Northeast 486 559 33,000  Level Kansas City Center
Sat 12:53:09 PM 36.1153 -94.5431 37° Northeast 482 555 33,000 49 Level Memphis Center
Sat 12:54:01 PM 36.2011 -94.4611 38° Northeast 483 556 33,100 53 Climbing Kansas City Center
Sat 12:55:02 PM 36.3086 -94.3586 38° Northeast 487 560 33,100  Level Kansas City Center
Sat 12:56:04 PM 36.4356 -94.2367 38° Northeast 485 558 33,100 -49 Level Kansas City Center
Sat 12:57:05 PM 36.5406 -94.1350 38° Northeast 482 555 33,000 -98 Descending Kansas City Center
Sat 12:58:06 PM 36.6456 -94.0339 38° Northeast 480 552 32,900  Descending Kansas City Center
Sat 12:59:08 PM 36.7703 -93.9872 17° North 477 549 33,000  Climbing Kansas City Center
Sat 01:00:10 PM 36.8978 -93.9839 North 462 532 32,900  Descending Kansas City Center
Sat 01:01:11 PM 37.0253 -93.9697 North 460 529 33,000 98 Climbing Kansas City Center
Sat 01:02:12 PM 37.1628 -93.9667 North 463 533 33,100 49 Climbing Kansas City Center
Sat 01:03:14 PM 37.2947 -93.9608 North 468 539 33,100 -49 Level Kansas City Center
Sat 01:04:15 PM 37.4258 -93.9525 North 469 540 33,000 -98 Descending Kansas City Center
Sat 01:05:17 PM 37.5542 -93.9681 355° North 464 534 32,900  Descending Kansas City Center
Sat 01:06:18 PM 37.6867 -93.9828 355° North 469 540 33,000 -197 Climbing Kansas City Center
Sat 01:07:19 PM 37.8186 -93.9950 356° North 472 543 32,500 -1,902 Descending Kansas City Center
Sat 01:08:21 PM 37.9742 -94.0114 355° North 466 536 29,100 -3,268 Descending Kansas City Center
Sat 01:09:22 PM 38.1086 -94.0244 356° North 475 547 25,800 -3,171 Descending Kansas City Center
Sat 01:10:24 PM 38.2347 -94.0367 356° North 461 531 22,600 -3,024 Descending Kansas City Center
Sat 01:11:25 PM 38.3514 -94.0486 355° North 432 497 19,600 -2,829 Descending Kansas City Center
Sat 01:12:27 PM 38.4692 -94.0603 356° North 424 488 16,800 -2,634 Descending Kansas City Center
Sat 01:13:28 PM 38.5908 -94.0756 354° North 411 473 14,200 -2,634 Descending Kansas City Center
Sat 01:14:30 PM 38.6894 -94.0936 352° North 384 442 11,400 -2,049 Descending Kansas City Center
Sat 01:15:31 PM 38.7728 -94.1358 338° Northwest 339 390 10,000 -732 Descending Kansas City Center
Sat 01:16:33 PM 38.8719 -94.1828 340° North 339 390 9,900 -439 Descending Kansas City Center
Sat 01:17:34 PM 38.9400 -94.2350 329° Northwest 302 348 9,100 -1,366 Descending Kansas City Center
Sat 01:18:36 PM 39.0164 -94.2958 328° Northwest 291 335 7,100 -1,317 Descending Kansas City Center
Sat 01:19:37 PM 39.0831 -94.3422 332° Northwest 285 328 6,400 -1,122 Descending Kansas City Center
Sat 01:20:39 PM 39.1597 -94.3928 333° Northwest 277 319 4,800 -1,171 Descending Kansas City Center
Sat 01:21:40 PM 39.2192 -94.4456 325° Northwest 273 314 4,000 -878 Descending Kansas City Center
Sat 01:22:42 PM 39.2703 -94.5017 320° Northwest 247 284 3,000 -537 Descending Kansas City Center
Sat 01:23:43 PM 39.2781 -94.5747 278° West 180 207 2,900 -439 Descending Kansas City Center
Sat 01:24:45 PM 39.2825 -94.6281 276° West 159 183 2,100 -780 Descending Kansas City Center
Sat 01:25:46 PM 39.2867 -94.6797 276° West 134 154 1,300 -787 Descending Kansas City Center

Login

Don't have an account? Register now (free) for customized features, flight alerts, and more!